createdAt,value
2018-12-22T00:00:35.794Z,51.77
2018-12-22T00:03:04.103Z,48.27
2018-12-22T00:05:32.441Z,42.90
2018-12-22T00:08:00.846Z,45.30
2018-12-22T00:10:29.112Z,29.90
2018-12-22T00:12:57.427Z,42.10
2018-12-22T00:15:25.713Z,42.87
2018-12-22T00:17:53.938Z,36.20
2018-12-22T00:20:22.150Z,35.73
2018-12-22T00:22:50.417Z,32.27
2018-12-22T00:25:18.757Z,28.50
2018-12-22T00:27:47.007Z,33.83
2018-12-22T00:30:15.329Z,35.47
2018-12-22T00:32:43.578Z,43.50
2018-12-22T00:35:11.821Z,35.03
2018-12-22T00:37:40.143Z,31.43
2018-12-22T00:40:08.470Z,30.87
2018-12-22T00:42:36.960Z,38.60
2018-12-22T00:45:05.638Z,42.27
2018-12-22T00:47:33.937Z,39.53
2018-12-22T00:50:02.255Z,37.70
2018-12-22T00:52:30.597Z,35.87
2018-12-22T00:54:58.861Z,37.80
2018-12-22T00:57:27.116Z,49.27
2018-12-22T00:59:55.335Z,40.43
2018-12-22T01:02:23.595Z,30.47
2018-12-22T01:04:51.833Z,34.40
2018-12-22T01:07:20.120Z,29.27
2018-12-22T01:09:48.421Z,30.43
2018-12-22T01:12:16.678Z,29.80
2018-12-22T01:14:44.903Z,32.23
2018-12-22T01:17:13.138Z,29.93
2018-12-22T01:19:41.556Z,26.97
2018-12-22T01:22:09.810Z,32.90
2018-12-22T01:24:38.069Z,24.80
2018-12-22T01:27:06.460Z,39.30
2018-12-22T01:29:34.828Z,30.90
2018-12-22T01:32:03.146Z,32.60
2018-12-22T01:34:31.419Z,27.73
2018-12-22T01:36:59.668Z,26.63
2018-12-22T01:39:27.925Z,26.47
2018-12-22T01:41:56.182Z,35.90
2018-12-22T01:44:24.420Z,26.17
2018-12-22T01:46:52.694Z,30.33
2018-12-22T01:49:21.201Z,26.03
2018-12-22T01:51:49.434Z,32.17
2018-12-22T01:54:17.661Z,31.63
2018-12-22T01:56:45.907Z,35.87
2018-12-22T01:59:14.195Z,33.20
2018-12-22T02:01:42.443Z,31.27
2018-12-22T02:04:10.693Z,28.77
2018-12-22T02:06:39.003Z,38.77
2018-12-22T02:09:08.013Z,33.80
2018-12-22T02:11:36.318Z,35.07
2018-12-22T02:14:04.758Z,22.40
2018-12-22T02:16:33.021Z,20.87
2018-12-22T02:19:01.324Z,35.50
2018-12-22T02:21:29.570Z,24.80
2018-12-22T02:23:58.071Z,34.43
2018-12-22T02:26:26.334Z,34.17
2018-12-22T02:28:56.776Z,26.50
2018-12-22T02:31:24.845Z,31.07
2018-12-22T02:33:53.119Z,26.20
2018-12-22T02:36:21.677Z,28.30
2018-12-22T02:38:50.136Z,23.53
2018-12-22T02:41:18.373Z,15.90
2018-12-22T02:43:46.744Z,29.20
2018-12-22T02:46:14.981Z,24.10
2018-12-22T02:48:43.287Z,21.07
2018-12-22T02:51:11.549Z,19.77
2018-12-22T02:53:39.776Z,23.00
2018-12-22T02:56:07.994Z,19.60
2018-12-22T02:58:36.238Z,14.77
2018-12-22T03:01:04.674Z,23.20
2018-12-22T03:03:32.927Z,9.87
2018-12-22T03:06:01.244Z,14.83
2018-12-22T03:08:29.477Z,9.30
2018-12-22T03:10:57.726Z,15.87
2018-12-22T03:13:26.084Z,14.33
2018-12-22T03:15:54.397Z,13.70
2018-12-22T03:18:22.692Z,20.73
2018-12-22T03:20:50.926Z,11.00
2018-12-22T03:23:19.264Z,14.33
2018-12-22T03:25:47.528Z,14.70
2018-12-22T03:28:15.773Z,20.40
2018-12-22T03:30:44.095Z,19.40
2018-12-22T03:33:12.371Z,15.30
2018-12-22T03:35:40.625Z,28.43
2018-12-22T03:38:08.974Z,21.80
2018-12-22T03:40:37.287Z,15.70
2018-12-22T03:43:05.549Z,19.13
2018-12-22T03:45:33.942Z,12.30
2018-12-22T03:48:02.271Z,26.50
2018-12-22T03:50:30.496Z,13.53
2018-12-22T03:52:58.882Z,13.93
2018-12-22T03:55:27.131Z,23.40
2018-12-22T03:57:55.367Z,26.30
2018-12-22T04:00:23.703Z,15.70
2018-12-22T04:02:52.659Z,19.07
2018-12-22T04:05:20.978Z,24.03
2018-12-22T04:07:49.242Z,18.30
2018-12-22T04:10:17.599Z,13.77
2018-12-22T04:12:45.881Z,23.40
2018-12-22T04:15:14.327Z,15.27
2018-12-22T04:17:42.696Z,20.90
2018-12-22T04:20:11.004Z,17.87
2018-12-22T04:22:39.343Z,11.73
2018-12-22T04:25:07.688Z,16.87
2018-12-22T04:27:36.020Z,19.80
2018-12-22T04:30:04.518Z,13.23
2018-12-22T04:32:32.747Z,24.07
2018-12-22T04:35:00.999Z,13.30
2018-12-22T04:37:29.258Z,20.70
2018-12-22T04:39:57.687Z,14.33
2018-12-22T04:42:25.985Z,21.03
2018-12-22T04:44:54.207Z,19.10
2018-12-22T04:47:22.446Z,16.90
2018-12-22T04:49:50.683Z,25.27
2018-12-22T04:52:18.921Z,14.50
2018-12-22T04:54:47.151Z,18.47
2018-12-22T04:57:15.370Z,15.50
2018-12-22T04:59:43.603Z,14.90
2018-12-22T05:02:11.938Z,18.80
2018-12-22T05:04:40.189Z,12.50
2018-12-22T05:07:08.440Z,18.17
2018-12-22T05:09:36.669Z,14.83
2018-12-22T05:12:04.967Z,9.63
2018-12-22T05:14:33.251Z,15.40
2018-12-22T05:17:01.665Z,11.17
2018-12-22T05:19:29.900Z,10.07
2018-12-22T05:21:58.129Z,10.57
2018-12-22T05:24:26.379Z,16.93
2018-12-22T05:26:54.593Z,10.43
2018-12-22T05:29:22.853Z,10.40
2018-12-22T05:31:51.155Z,6.93
2018-12-22T05:34:19.390Z,18.90
2018-12-22T05:36:47.617Z,17.37
2018-12-22T05:39:15.913Z,11.33
2018-12-22T05:41:44.135Z,10.03
2018-12-22T05:44:12.350Z,25.13
2018-12-22T05:46:40.586Z,9.60
2018-12-22T05:49:08.819Z,13.00
2018-12-22T05:51:37.074Z,8.63
2018-12-22T05:54:05.306Z,20.07
2018-12-22T05:56:33.575Z,8.57
2018-12-22T05:59:01.815Z,8.43
2018-12-22T06:01:30.131Z,7.67
2018-12-22T06:03:58.359Z,3.77
2018-12-22T06:06:26.678Z,8.43
2018-12-22T06:08:54.918Z,6.23
2018-12-22T06:11:23.160Z,10.00
2018-12-22T06:13:51.388Z,6.97
2018-12-22T06:16:19.652Z,10.60
2018-12-22T06:18:47.901Z,7.60
2018-12-22T06:21:16.164Z,13.43
2018-12-22T06:23:44.401Z,8.00
2018-12-22T06:26:12.641Z,7.50
2018-12-22T06:28:40.892Z,4.57
2018-12-22T06:31:09.175Z,6.13
2018-12-22T06:33:37.450Z,5.33
2018-12-22T06:36:05.817Z,4.27
2018-12-22T06:38:34.237Z,5.90
2018-12-22T06:41:02.468Z,2.80
2018-12-22T06:43:30.702Z,10.90
2018-12-22T06:45:58.916Z,8.13
2018-12-22T06:48:27.163Z,10.23
2018-12-22T06:50:55.453Z,6.53
2018-12-22T06:53:23.692Z,10.20
2018-12-22T06:55:51.915Z,5.93
2018-12-22T06:58:20.229Z,6.97
2018-12-22T07:00:48.467Z,7.63
2018-12-22T07:03:16.762Z,8.50
2018-12-22T07:05:45.082Z,5.63
2018-12-22T07:08:13.472Z,5.17
2018-12-22T07:10:41.717Z,4.50
2018-12-22T07:13:10.092Z,6.50
2018-12-22T07:15:38.666Z,5.73
2018-12-22T07:18:06.981Z,8.37
2018-12-22T07:20:35.217Z,19.77
2018-12-22T07:23:03.527Z,11.33
2018-12-22T07:25:31.770Z,12.20
2018-12-22T07:28:00.170Z,9.77
2018-12-22T07:30:28.390Z,11.33
2018-12-22T07:32:57.394Z,8.10
2018-12-22T07:35:26.164Z,8.47
2018-12-22T07:37:54.381Z,6.53
2018-12-22T07:40:22.658Z,7.00
2018-12-22T07:42:50.983Z,10.70
2018-12-22T07:45:19.265Z,11.83
2018-12-22T07:47:48.240Z,5.47
2018-12-22T07:50:16.480Z,8.90
2018-12-22T07:52:51.565Z,10.50
2018-12-22T07:55:15.070Z,13.47
2018-12-22T07:57:43.311Z,6.37
2018-12-22T08:00:11.807Z,4.00
2018-12-22T08:02:40.045Z,12.87
2018-12-22T08:05:08.326Z,9.70
2018-12-22T08:07:36.551Z,9.07
2018-12-22T08:10:05.245Z,8.80
2018-12-22T08:12:33.504Z,10.40
2018-12-22T08:15:02.051Z,14.30
2018-12-22T08:17:30.400Z,11.67
2018-12-22T08:19:58.841Z,10.87
2018-12-22T08:22:27.096Z,13.50
2018-12-22T08:24:55.535Z,7.70
2018-12-22T08:27:23.985Z,9.33
2018-12-22T08:29:52.259Z,8.07
2018-12-22T08:32:20.762Z,8.47
2018-12-22T08:34:48.977Z,7.53
2018-12-22T08:37:17.225Z,12.40
2018-12-22T08:39:45.469Z,8.27
2018-12-22T08:42:14.150Z,11.03
2018-12-22T08:44:42.929Z,13.50
2018-12-22T08:47:11.233Z,7.00
2018-12-22T08:49:39.509Z,8.70
2018-12-22T08:52:07.777Z,11.60
2018-12-22T08:54:36.102Z,14.87
2018-12-22T08:57:04.469Z,8.80
2018-12-22T08:59:32.728Z,11.93
2018-12-22T09:02:01.051Z,6.60
2018-12-22T09:04:30.463Z,8.47
2018-12-22T09:06:58.821Z,13.27
2018-12-22T09:09:27.079Z,6.17
2018-12-22T09:11:55.316Z,7.80
2018-12-22T09:14:23.566Z,14.00
2018-12-22T09:16:51.903Z,12.03
2018-12-22T09:19:20.127Z,13.00
2018-12-22T09:21:48.361Z,15.47
2018-12-22T09:24:16.774Z,8.20
2018-12-22T09:26:45.050Z,8.57
2018-12-22T09:29:13.310Z,6.20
2018-12-22T09:31:41.575Z,7.67
2018-12-22T09:34:13.414Z,8.23
2018-12-22T09:36:40.326Z,9.20
2018-12-22T09:39:08.886Z,10.00
2018-12-22T09:41:37.205Z,7.73
2018-12-22T09:44:05.543Z,13.77
2018-12-22T09:46:34.350Z,8.23
2018-12-22T09:49:02.657Z,4.27
2018-12-22T09:51:31.205Z,10.07
2018-12-22T09:53:59.622Z,9.60
2018-12-22T09:56:27.839Z,5.50
2018-12-22T09:58:56.106Z,6.60
2018-12-22T10:01:24.372Z,8.57
2018-12-22T10:03:52.735Z,6.43
2018-12-22T10:06:21.010Z,9.30
2018-12-22T10:08:49.265Z,10.53
2018-12-22T10:11:17.506Z,3.23
2018-12-22T10:13:45.760Z,4.90
2018-12-22T10:16:13.995Z,6.20
2018-12-22T10:18:42.538Z,5.30
2018-12-22T10:21:10.805Z,9.00
2018-12-22T10:23:39.106Z,5.00
2018-12-22T10:26:07.330Z,8.00
2018-12-22T10:28:35.657Z,6.93
2018-12-22T10:31:03.962Z,9.27
2018-12-22T10:33:32.213Z,7.57
2018-12-22T10:36:00.455Z,6.40
2018-12-22T10:38:28.680Z,10.13
2018-12-22T10:40:56.921Z,10.43
2018-12-22T10:43:25.241Z,10.70
2018-12-22T10:45:53.485Z,13.20
2018-12-22T10:48:21.713Z,5.40
2018-12-22T10:50:49.958Z,5.07
2018-12-22T10:53:18.201Z,10.67
2018-12-22T10:55:46.525Z,6.43
2018-12-22T10:58:14.777Z,9.07
2018-12-22T11:00:43.026Z,12.07
2018-12-22T11:03:11.293Z,11.60
2018-12-22T11:05:39.624Z,8.73
2018-12-22T11:08:07.994Z,9.27
2018-12-22T11:10:36.732Z,7.30
2018-12-22T11:13:05.014Z,7.00
2018-12-22T11:15:33.236Z,9.23
2018-12-22T11:18:01.722Z,3.30
2018-12-22T11:20:29.954Z,10.10
2018-12-22T11:22:58.207Z,6.73
2018-12-22T11:25:26.849Z,7.20
2018-12-22T11:27:56.110Z,13.63
2018-12-22T11:30:27.483Z,8.07
2018-12-22T11:32:55.717Z,4.97
2018-12-22T11:35:23.942Z,5.27
2018-12-22T11:37:52.180Z,5.10
2018-12-22T11:40:20.436Z,12.30
2018-12-22T11:42:48.758Z,5.50
2018-12-22T11:45:17.035Z,10.03
2018-12-22T11:47:54.868Z,14.00
2018-12-22T11:50:25.446Z,10.47
2018-12-22T11:52:53.831Z,9.70
2018-12-22T11:55:22.143Z,12.30
2018-12-22T11:57:50.421Z,13.00
2018-12-22T12:00:18.750Z,9.47
2018-12-22T12:02:47.029Z,8.10
2018-12-22T12:05:15.377Z,7.50
2018-12-22T12:07:43.716Z,11.63
2018-12-22T12:10:12.061Z,10.03
2018-12-22T12:12:40.502Z,9.50
2018-12-22T12:15:17.138Z,10.83
2018-12-22T12:18:55.340Z,9.83
2018-12-22T12:21:23.585Z,9.77
2018-12-22T12:23:52.858Z,17.10
2018-12-22T12:26:21.217Z,8.00
2018-12-22T12:28:49.730Z,10.70
2018-12-22T12:31:18.243Z,13.00
2018-12-22T12:33:46.779Z,9.03
2018-12-22T12:36:15.022Z,13.10
2018-12-22T12:38:43.309Z,4.83
2018-12-22T12:41:11.719Z,8.73
2018-12-22T12:43:40.095Z,10.70
2018-12-22T12:46:08.447Z,12.83
2018-12-22T12:48:36.857Z,13.47
2018-12-22T12:51:05.208Z,10.30
2018-12-22T12:53:33.597Z,11.37
2018-12-22T12:56:01.828Z,9.67
2018-12-22T12:58:30.150Z,11.10
2018-12-22T13:00:58.406Z,14.30
2018-12-22T13:03:26.649Z,4.20
2018-12-22T13:05:54.931Z,8.60
2018-12-22T13:08:23.318Z,6.97
2018-12-22T13:10:51.771Z,8.23
2018-12-22T13:13:37.866Z,9.50
2018-12-22T13:16:06.139Z,9.23
2018-12-22T13:18:34.762Z,6.33
2018-12-22T13:21:04.472Z,6.00
2018-12-22T13:23:33.154Z,12.57
2018-12-22T13:26:01.714Z,7.80
2018-12-22T13:28:30.152Z,6.17
2018-12-22T13:30:58.410Z,10.37
2018-12-22T13:33:26.789Z,9.77
2018-12-22T13:35:55.379Z,12.40
2018-12-22T13:38:23.913Z,8.50
2018-12-22T13:40:52.327Z,8.67
2018-12-22T13:43:20.950Z,10.00
2018-12-22T13:45:49.300Z,7.17
2018-12-22T13:48:17.639Z,5.60
2018-12-22T13:50:45.955Z,9.07
2018-12-22T13:53:14.362Z,14.27
2018-12-22T13:55:42.636Z,9.43
2018-12-22T13:58:11.059Z,6.90
2018-12-22T14:00:42.930Z,9.70
2018-12-22T14:05:57.074Z,9.60
2018-12-22T14:08:25.935Z,8.77
2018-12-22T14:10:54.285Z,10.80
2018-12-22T14:13:22.522Z,10.20
2018-12-22T14:15:55.101Z,7.00
2018-12-22T14:18:35.049Z,8.43
2018-12-22T14:21:03.350Z,10.73
2018-12-22T14:23:46.725Z,12.50
2018-12-22T14:26:15.227Z,13.07
2018-12-22T14:28:43.687Z,9.93
2018-12-22T14:31:12.060Z,11.20
2018-12-22T14:33:40.897Z,7.30
2018-12-22T14:36:11.613Z,8.60
2018-12-22T14:38:39.865Z,8.27
2018-12-22T14:41:08.231Z,12.10
2018-12-22T14:43:36.482Z,11.00
2018-12-22T14:46:05.928Z,11.10
2018-12-22T14:48:34.229Z,12.37
2018-12-22T14:51:02.524Z,9.20
2018-12-22T14:53:30.864Z,11.97
2018-12-22T14:55:59.286Z,6.03
2018-12-22T14:58:28.963Z,16.60
2018-12-22T15:00:57.263Z,8.47
2018-12-22T15:03:25.792Z,10.60
2018-12-22T15:05:54.107Z,5.23
2018-12-22T15:08:22.595Z,10.00
2018-12-22T15:10:50.912Z,7.73
2018-12-22T15:13:19.172Z,16.77
2018-12-22T15:15:47.496Z,9.77
2018-12-22T15:18:15.753Z,5.17
2018-12-22T15:20:44.070Z,7.43
2018-12-22T15:23:14.011Z,10.03
2018-12-22T15:25:42.386Z,12.63
2018-12-22T15:28:10.740Z,8.07
2018-12-22T15:30:39.086Z,10.53
2018-12-22T15:33:07.504Z,11.03
2018-12-22T15:35:35.939Z,12.93
2018-12-22T15:38:04.403Z,14.10
2018-12-22T15:40:32.683Z,12.13
2018-12-22T15:43:01.075Z,11.23
2018-12-22T15:45:29.481Z,11.07
2018-12-22T15:47:57.771Z,11.37
2018-12-22T15:50:28.341Z,8.33
2018-12-22T15:52:56.814Z,20.90
2018-12-22T15:55:25.238Z,8.17
2018-12-22T15:57:53.529Z,10.97
2018-12-22T16:00:21.851Z,7.40
2018-12-22T16:02:53.437Z,8.53
2018-12-22T16:05:20.471Z,14.10
2018-12-22T16:07:48.870Z,9.67
2018-12-22T16:10:17.142Z,11.10
2018-12-22T16:12:45.666Z,17.83
2018-12-22T16:15:16.193Z,23.30
2018-12-22T16:17:44.602Z,23.60
2018-12-22T16:20:13.279Z,25.20
2018-12-22T16:22:45.302Z,20.30
2018-12-22T16:25:13.827Z,19.40
2018-12-22T16:27:42.110Z,19.60
2018-12-22T16:30:16.411Z,23.60
2018-12-22T16:32:44.696Z,25.17
2018-12-22T16:35:13.647Z,25.20
2018-12-22T16:37:42.558Z,21.73
2018-12-22T16:40:11.858Z,23.53
2018-12-22T16:42:40.340Z,25.57
2018-12-22T16:45:11.679Z,21.20
2018-12-22T16:47:40.118Z,21.70
2018-12-22T16:50:10.987Z,22.57
2018-12-22T16:52:39.421Z,31.60
2018-12-22T16:55:10.127Z,22.93
2018-12-22T16:57:40.213Z,13.97
2018-12-22T17:00:12.645Z,74.37
2018-12-22T17:02:52.615Z,83.80
2018-12-22T17:05:21.304Z,75.08
2018-12-22T17:07:49.900Z,81.20
2018-12-22T17:10:18.225Z,116.07
2018-12-22T17:12:47.151Z,61.33
2018-12-22T17:15:21.903Z,81.37
2018-12-22T17:17:45.938Z,71.13
2018-12-22T17:20:14.475Z,55.33
2018-12-22T17:22:54.069Z,46.50
2018-12-22T17:25:30.902Z,46.57
2018-12-22T17:27:59.786Z,45.40
2018-12-22T17:30:28.033Z,27.60
2018-12-22T17:32:56.337Z,33.50
2018-12-22T17:35:24.692Z,40.70
2018-12-22T17:37:53.292Z,35.40
2018-12-22T17:40:21.687Z,20.60
2018-12-22T17:42:50.095Z,28.13
2018-12-22T17:45:18.446Z,29.10
2018-12-22T17:47:46.694Z,22.50
2018-12-22T17:50:15.874Z,22.70
2018-12-22T17:52:44.194Z,21.13
2018-12-22T17:55:12.511Z,19.70
2018-12-22T17:57:40.905Z,18.40
2018-12-22T18:00:10.913Z,15.70
2018-12-22T18:02:39.317Z,16.90
2018-12-22T18:05:07.776Z,19.30
2018-12-22T18:07:36.147Z,18.50
2018-12-22T18:10:05.382Z,18.10
2018-12-22T18:12:33.771Z,14.93
2018-12-22T18:15:02.774Z,28.00
2018-12-22T18:17:31.090Z,24.63
2018-12-22T18:19:59.379Z,24.37
2018-12-22T18:22:27.651Z,15.33
2018-12-22T18:24:56.019Z,19.20
2018-12-22T18:27:24.273Z,13.90
2018-12-22T18:29:52.565Z,17.37
2018-12-22T18:32:21.240Z,15.13
2018-12-22T18:34:49.535Z,14.73
2018-12-22T18:37:17.898Z,13.57
2018-12-22T18:39:46.481Z,18.43
2018-12-22T18:42:15.053Z,13.50
2018-12-22T18:44:43.379Z,19.40
2018-12-22T18:47:11.670Z,13.73
2018-12-22T18:49:39.896Z,11.87
2018-12-22T18:52:08.344Z,11.23
2018-12-22T18:54:36.958Z,13.33
2018-12-22T18:57:05.374Z,15.60
2018-12-22T18:59:33.735Z,16.23
2018-12-22T19:02:02.133Z,10.13
2018-12-22T19:04:30.389Z,10.40
2018-12-22T19:06:58.870Z,15.00
2018-12-22T19:09:29.631Z,16.77
2018-12-22T19:11:58.251Z,13.23
2018-12-22T19:14:26.482Z,13.87
2018-12-22T19:16:54.810Z,15.10
2018-12-22T19:19:23.182Z,17.10
2018-12-22T19:21:51.531Z,10.40
2018-12-22T19:24:19.792Z,15.33
2018-12-22T19:26:48.090Z,18.53
2018-12-22T19:29:16.333Z,12.20
2018-12-22T19:31:44.568Z,18.10
2018-12-22T19:34:12.957Z,11.30
2018-12-22T19:36:41.241Z,22.00
2018-12-22T19:39:09.927Z,12.90
2018-12-22T19:41:38.193Z,17.37
2018-12-22T19:44:06.456Z,27.30
2018-12-22T19:46:35.274Z,18.90
2018-12-22T19:49:03.516Z,20.90
2018-12-22T19:51:33.098Z,17.33
2018-12-22T19:54:01.323Z,17.50
2018-12-22T19:56:29.624Z,11.43
2018-12-22T19:58:57.893Z,11.80
2018-12-22T20:01:26.141Z,10.67
2018-12-22T20:04:01.870Z,18.80
2018-12-22T20:06:24.775Z,13.30
2018-12-22T20:08:53.052Z,16.13
2018-12-22T20:11:21.309Z,18.70
2018-12-22T20:13:49.578Z,12.90
2018-12-22T20:16:17.848Z,18.33
2018-12-22T20:18:46.674Z,13.00
2018-12-22T20:21:14.919Z,15.97
2018-12-22T20:23:43.168Z,12.60
2018-12-22T20:26:12.171Z,14.07
2018-12-22T20:28:40.444Z,14.20
2018-12-22T20:31:08.712Z,12.07
2018-12-22T20:33:37.703Z,11.30
2018-12-22T20:36:05.942Z,15.37
2018-12-22T20:38:34.666Z,10.70
2018-12-22T20:41:02.971Z,11.80
2018-12-22T20:43:31.231Z,15.63
2018-12-22T20:46:00.503Z,10.90
2018-12-22T20:48:28.800Z,15.27
2018-12-22T20:50:57.037Z,16.33
2018-12-22T20:53:25.286Z,14.73
2018-12-22T20:55:53.510Z,14.80
2018-12-22T20:58:21.835Z,15.87
2018-12-22T21:00:50.080Z,14.23
2018-12-22T21:03:20.117Z,13.57
2018-12-22T21:05:56.051Z,16.50
2018-12-22T21:08:24.304Z,11.43
2018-12-22T21:10:52.553Z,14.33
2018-12-22T21:13:20.912Z,15.07
2018-12-22T21:15:49.265Z,13.93
2018-12-22T21:18:17.657Z,16.17
2018-12-22T21:20:45.921Z,9.53
2018-12-22T21:23:14.689Z,11.37
2018-12-22T21:25:42.919Z,17.40
2018-12-22T21:28:11.305Z,15.90
2018-12-22T21:30:39.561Z,13.87
2018-12-22T21:33:07.788Z,15.07
2018-12-22T21:35:36.217Z,20.83
2018-12-22T21:38:04.458Z,18.33
2018-12-22T21:40:33.094Z,21.30
2018-12-22T21:43:01.318Z,16.63
2018-12-22T21:45:29.598Z,12.43
2018-12-22T21:47:57.810Z,11.03
2018-12-22T21:50:26.056Z,13.30
2018-12-22T21:52:54.386Z,20.47
2018-12-22T21:55:22.650Z,15.10
2018-12-22T21:57:50.867Z,15.90
2018-12-22T22:00:19.195Z,21.27
2018-12-22T22:02:47.421Z,20.37
2018-12-22T22:05:15.739Z,14.10
2018-12-22T22:07:43.985Z,10.57
2018-12-22T22:10:12.252Z,13.53
2018-12-22T22:12:40.535Z,13.83
2018-12-22T22:15:08.863Z,15.13
2018-12-22T22:17:37.122Z,19.00
2018-12-22T22:20:12.019Z,13.37
2018-12-22T22:22:40.247Z,16.93
2018-12-22T22:25:08.526Z,9.37
2018-12-22T22:27:36.804Z,22.03
2018-12-22T22:30:05.845Z,12.80
2018-12-22T22:32:34.457Z,22.87
2018-12-22T22:35:02.901Z,13.07
2018-12-22T22:37:31.152Z,16.07
2018-12-22T22:39:59.422Z,17.43
2018-12-22T22:42:27.998Z,16.73
2018-12-22T22:44:56.307Z,10.70
2018-12-22T22:47:24.543Z,11.30
2018-12-22T22:49:52.910Z,9.63
2018-12-22T22:52:21.282Z,9.33
2018-12-22T22:54:49.593Z,8.20
2018-12-22T22:57:17.942Z,10.77
2018-12-22T22:59:46.217Z,14.40
2018-12-22T23:02:14.605Z,13.60
2018-12-22T23:04:42.833Z,15.80
2018-12-22T23:07:11.089Z,8.10
2018-12-22T23:09:39.325Z,15.03
2018-12-22T23:12:07.780Z,9.80
2018-12-22T23:14:36.790Z,16.07
2018-12-22T23:17:05.170Z,12.83
2018-12-22T23:19:35.053Z,13.67
2018-12-22T23:22:03.577Z,9.10
2018-12-22T23:24:31.813Z,7.87
2018-12-22T23:27:00.079Z,7.53
2018-12-22T23:29:28.392Z,10.77
2018-12-22T23:31:56.806Z,10.93
2018-12-22T23:34:25.142Z,11.57
2018-12-22T23:36:53.536Z,15.40
2018-12-22T23:39:22.607Z,13.93
2018-12-22T23:41:50.854Z,14.37
2018-12-22T23:44:21.250Z,11.33
2018-12-22T23:46:49.472Z,17.40
2018-12-22T23:49:18.295Z,8.90
2018-12-22T23:51:46.899Z,13.07
2018-12-22T23:54:15.219Z,13.00
2018-12-22T23:56:43.477Z,13.97
2018-12-22T23:59:11.775Z,12.67
